Bogota, Colombia
Current Conditions -  °F | °C
As of 7:30 AM on Thursday 30 Oct 2014 (Local Time) from SKBO Reporting Station
Light Fog Light Fog  
Wind Chill: 11°   Ceiling: 300
Heat Index: 11°   Visibility: 0.75mi
Dew Point: 10°   Wind: 2mph
Humidity: 94%   Direction: NA
Pressure: 30.31"   Gusts: NA
Location:  4.63°N, 74.09°W
Report Text: SKBO 301230Z VRB02KT 1200 R13L/1000N R13R/0800N PRFG VV00311/10 A3031
Loading
Personal Weather Stations






























Interactive Weather Map
Tropical Storm Tracking
New forecast layout! Learn more

10-Day Weather Forecast

Advertisements
Track Severe Weather on mobile